createdAt,value
2022-10-19T00:01:06.502Z,9.42
2022-10-19T00:03:34.856Z,9.39
2022-10-19T00:06:10.599Z,9.33
2022-10-19T00:08:37.114Z,9.35
2022-10-19T00:11:03.535Z,9.26
2022-10-19T00:13:29.962Z,9.25
2022-10-19T00:15:56.350Z,9.28
2022-10-19T00:18:22.812Z,9.30
2022-10-19T00:20:49.287Z,9.28
2022-10-19T00:23:15.740Z,9.30
2022-10-19T00:25:42.144Z,9.32
2022-10-19T00:28:08.609Z,9.28
2022-10-19T00:30:38.462Z,9.27
2022-10-19T00:33:04.931Z,9.28
2022-10-19T00:35:31.334Z,9.29
2022-10-19T00:37:57.728Z,9.28
2022-10-19T00:40:24.252Z,9.26
2022-10-19T00:42:55.159Z,9.24
2022-10-19T00:45:21.558Z,9.22
2022-10-19T00:47:48.099Z,9.19
2022-10-19T00:50:15.429Z,9.21
2022-10-19T00:52:42.421Z,9.22
2022-10-19T00:55:10.147Z,9.27
2022-10-19T00:57:37.039Z,9.24
2022-10-19T01:00:07.643Z,9.25
2022-10-19T01:02:34.920Z,9.26
2022-10-19T01:05:02.082Z,9.23
2022-10-19T01:07:28.683Z,9.24
2022-10-19T01:09:56.042Z,9.22
2022-10-19T01:12:25.160Z,9.24
2022-10-19T01:15:06.056Z,9.23
2022-10-19T01:18:05.698Z,9.21
2022-10-19T01:20:57.014Z,9.24
2022-10-19T01:23:42.039Z,9.27
2022-10-19T01:26:42.594Z,9.21
2022-10-19T01:29:27.640Z,9.20
2022-10-19T01:32:05.815Z,9.23
2022-10-19T01:34:47.616Z,9.19
2022-10-19T01:37:38.936Z,9.18
2022-10-19T01:40:12.554Z,9.20
2022-10-19T01:42:45.019Z,9.13
2022-10-19T01:45:19.662Z,9.15
2022-10-19T01:47:48.220Z,9.15
2022-10-19T01:50:30.415Z,9.10
2022-10-19T01:52:58.871Z,9.11
2022-10-19T01:55:27.684Z,9.06
2022-10-19T01:58:06.237Z,9.04
2022-10-19T02:00:38.980Z,8.98
2022-10-19T02:03:07.208Z,8.94
2022-10-19T02:05:35.227Z,8.96
2022-10-19T02:08:06.427Z,8.96
2022-10-19T02:10:35.176Z,8.96
2022-10-19T02:13:03.118Z,9.02
2022-10-19T02:15:33.432Z,9.07
2022-10-19T02:18:01.830Z,9.02
2022-10-19T02:20:28.595Z,8.99
2022-10-19T02:22:55.429Z,9.02
2022-10-19T02:25:23.036Z,9.05
2022-10-19T02:27:49.536Z,9.02
2022-10-19T02:30:19.764Z,9.02
2022-10-19T02:32:46.217Z,8.97
2022-10-19T02:35:14.559Z,8.98
2022-10-19T02:37:41.207Z,8.96
2022-10-19T02:40:08.538Z,8.97
2022-10-19T02:42:54.432Z,8.97
2022-10-19T02:45:25.794Z,8.97
2022-10-19T02:48:00.463Z,9.00
2022-10-19T02:50:27.014Z,9.00
2022-10-19T02:52:53.441Z,8.92
2022-10-19T02:55:19.929Z,8.93
2022-10-19T02:57:46.308Z,8.90
2022-10-19T03:00:12.956Z,8.84
2022-10-19T03:02:39.378Z,8.91
2022-10-19T03:05:06.302Z,8.86
2022-10-19T03:07:33.237Z,8.87
2022-10-19T03:09:59.888Z,8.86
2022-10-19T03:12:26.336Z,8.76
2022-10-19T03:14:52.803Z,8.73
2022-10-19T03:17:19.320Z,8.68
2022-10-19T03:19:46.005Z,8.71
2022-10-19T03:22:14.810Z,8.71
2022-10-19T03:24:41.231Z,8.70
2022-10-19T03:27:07.628Z,8.69
2022-10-19T03:29:34.063Z,8.55
2022-10-19T03:32:00.463Z,8.47
2022-10-19T03:34:26.951Z,8.48
2022-10-19T03:36:53.408Z,8.51
2022-10-19T03:39:19.780Z,8.49
2022-10-19T03:41:46.467Z,8.48
2022-10-19T03:44:12.913Z,8.36
2022-10-19T03:46:40.179Z,8.40
2022-10-19T03:49:07.830Z,8.43
2022-10-19T03:51:35.083Z,8.43
2022-10-19T03:54:04.467Z,8.39
2022-10-19T03:56:32.767Z,8.33
2022-10-19T03:59:00.855Z,8.34
2022-10-19T04:01:31.108Z,8.38
2022-10-19T04:03:59.699Z,8.30
2022-10-19T04:06:29.112Z,8.32
2022-10-19T04:08:56.557Z,8.27
2022-10-19T04:11:26.410Z,8.21
2022-10-19T04:13:53.957Z,8.26
2022-10-19T04:16:22.249Z,8.29
2022-10-19T04:18:49.108Z,8.31
2022-10-19T04:21:36.074Z,8.31
2022-10-19T04:24:05.930Z,8.34
2022-10-19T04:26:33.819Z,8.32
2022-10-19T04:29:01.320Z,8.35
2022-10-19T04:31:28.643Z,8.38
2022-10-19T04:33:55.274Z,8.40
2022-10-19T04:36:21.984Z,8.39
2022-10-19T04:38:48.459Z,8.42
2022-10-19T04:41:18.174Z,8.31
2022-10-19T04:43:48.034Z,8.26
2022-10-19T04:46:19.237Z,8.20
2022-10-19T04:48:46.837Z,8.17
2022-10-19T04:51:14.335Z,8.01
2022-10-19T04:53:42.586Z,8.02
2022-10-19T04:56:18.703Z,8.00
2022-10-19T04:58:45.771Z,8.04
2022-10-19T05:01:15.311Z,8.09
2022-10-19T05:03:42.043Z,8.13
2022-10-19T05:06:09.661Z,8.07
2022-10-19T05:08:36.985Z,8.06
2022-10-19T05:11:06.043Z,8.05
2022-10-19T05:13:33.250Z,8.16
2022-10-19T05:16:02.085Z,8.22
2022-10-19T05:18:29.112Z,8.26
2022-10-19T05:21:05.511Z,8.34
2022-10-19T05:26:18.094Z,8.34
2022-10-19T05:28:56.657Z,8.38
2022-10-19T05:31:25.871Z,8.39
2022-10-19T05:33:52.325Z,8.36
2022-10-19T05:36:22.553Z,8.20
2022-10-19T05:38:50.247Z,8.19
2022-10-19T05:41:17.281Z,8.17
2022-10-19T05:43:45.946Z,8.09
2022-10-19T05:46:17.487Z,8.06
2022-10-19T05:48:45.511Z,7.98
2022-10-19T05:51:15.035Z,7.99
2022-10-19T05:53:42.050Z,7.93
2022-10-19T05:56:13.125Z,7.87
2022-10-19T05:58:39.863Z,7.86
2022-10-19T06:01:09.400Z,7.91
2022-10-19T06:03:36.062Z,7.96
2022-10-19T06:06:04.202Z,8.01
2022-10-19T06:08:30.765Z,8.04
2022-10-19T06:11:07.332Z,8.10
2022-10-19T06:13:34.129Z,8.05
2022-10-19T06:16:00.498Z,8.13
2022-10-19T06:18:26.906Z,8.15
2022-10-19T06:20:53.857Z,8.10
2022-10-19T06:23:20.267Z,8.18
2022-10-19T06:25:46.728Z,8.21
2022-10-19T06:28:13.172Z,8.24
2022-10-19T06:30:40.583Z,8.32
2022-10-19T06:33:07.484Z,8.33
2022-10-19T06:35:34.335Z,8.38
2022-10-19T06:38:01.040Z,8.39
2022-10-19T06:40:27.636Z,8.38
2022-10-19T06:42:56.033Z,8.39
2022-10-19T06:45:22.460Z,8.43
2022-10-19T06:47:49.026Z,8.49
2022-10-19T06:50:15.619Z,8.52
2022-10-19T06:52:42.125Z,8.51
2022-10-19T06:55:08.959Z,8.48
2022-10-19T06:57:35.738Z,8.47
2022-10-19T07:00:02.669Z,8.48
2022-10-19T07:02:29.077Z,8.49
2022-10-19T07:04:55.517Z,8.50
2022-10-19T07:07:21.893Z,8.50
2022-10-19T07:09:48.798Z,8.50
2022-10-19T07:12:15.287Z,8.53
2022-10-19T07:14:41.668Z,8.57
2022-10-19T07:17:10.216Z,8.59
2022-10-19T07:19:36.637Z,8.57
2022-10-19T07:22:03.639Z,8.50
2022-10-19T07:24:30.182Z,8.58
2022-10-19T07:26:56.760Z,8.65
2022-10-19T07:29:23.266Z,8.71
2022-10-19T07:31:49.741Z,8.75
2022-10-19T07:34:16.484Z,8.80
2022-10-19T07:36:45.993Z,8.82
2022-10-19T07:39:13.142Z,8.86
2022-10-19T07:41:39.662Z,8.89
2022-10-19T07:44:06.207Z,8.93
2022-10-19T07:46:37.225Z,8.95
2022-10-19T07:49:07.229Z,8.99
2022-10-19T07:51:33.625Z,9.02
2022-10-19T07:54:00.102Z,9.02
2022-10-19T07:56:27.764Z,9.05
2022-10-19T07:58:56.274Z,9.06
2022-10-19T08:01:28.356Z,9.09
2022-10-19T08:04:48.648Z,9.13
2022-10-19T08:06:42.806Z,9.18
2022-10-19T08:09:09.328Z,9.22
2022-10-19T08:11:36.449Z,9.24
2022-10-19T08:14:03.655Z,9.27
2022-10-19T08:16:32.846Z,9.31
2022-10-19T08:19:02.666Z,9.41
2022-10-19T08:21:30.086Z,9.45
2022-10-19T08:23:57.152Z,9.47
2022-10-19T08:26:24.121Z,9.49
2022-10-19T08:28:50.532Z,9.52
2022-10-19T08:31:22.006Z,9.58
2022-10-19T08:33:51.812Z,9.65
2022-10-19T08:36:22.240Z,9.72
2022-10-19T08:38:49.235Z,9.77
2022-10-19T08:41:57.617Z,9.79
2022-10-19T08:44:42.279Z,9.80
2022-10-19T08:47:30.764Z,9.97
2022-10-19T08:49:58.123Z,10.04
2022-10-19T08:52:34.240Z,10.08
2022-10-19T08:55:19.724Z,10.10
2022-10-19T08:57:59.252Z,10.09
2022-10-19T09:00:42.934Z,10.13
2022-10-19T09:03:27.122Z,10.11
2022-10-19T09:06:22.524Z,10.20
2022-10-19T09:08:52.892Z,10.27
2022-10-19T09:11:25.927Z,10.40
2022-10-19T09:14:17.450Z,10.55
2022-10-19T09:16:43.946Z,10.61
2022-10-19T09:19:18.270Z,10.58
2022-10-19T09:21:50.917Z,10.64
2022-10-19T09:24:48.271Z,10.75
2022-10-19T09:27:23.746Z,10.82
2022-10-19T09:29:58.084Z,10.94
2022-10-19T09:32:38.116Z,10.93
2022-10-19T09:35:23.208Z,10.90
2022-10-19T09:37:51.189Z,10.92
2022-10-19T09:40:27.179Z,10.92
2022-10-19T09:42:58.218Z,11.06
2022-10-19T09:45:57.308Z,10.96
2022-10-19T09:48:31.079Z,11.02
2022-10-19T09:51:12.256Z,11.04
2022-10-19T09:53:44.925Z,11.07
2022-10-19T09:56:20.029Z,11.22
2022-10-19T09:58:54.837Z,11.30
2022-10-19T10:01:43.177Z,11.33
2022-10-19T10:04:16.897Z,11.38
2022-10-19T10:06:46.278Z,11.38
2022-10-19T10:09:26.148Z,11.46
2022-10-19T10:14:35.006Z,11.46
2022-10-19T10:17:04.977Z,11.44
2022-10-19T10:19:33.484Z,11.53
2022-10-19T10:22:00.436Z,11.56
2022-10-19T10:24:30.580Z,11.47
2022-10-19T10:26:59.869Z,11.48
2022-10-19T10:29:29.035Z,11.55
2022-10-19T10:32:03.155Z,11.47
2022-10-19T10:34:54.851Z,11.56
2022-10-19T10:37:39.694Z,11.52
2022-10-19T10:40:22.593Z,11.44
2022-10-19T10:42:51.499Z,11.52
2022-10-19T10:45:39.622Z,11.58
2022-10-19T10:48:23.210Z,11.62
2022-10-19T10:50:51.974Z,11.89
2022-10-19T10:53:37.816Z,11.85
2022-10-19T10:56:06.397Z,11.98
2022-10-19T10:58:38.812Z,12.09
2022-10-19T11:01:13.444Z,12.15
2022-10-19T11:03:46.382Z,12.17
2022-10-19T11:06:14.881Z,12.18
2022-10-19T11:08:49.237Z,12.23
2022-10-19T11:11:30.603Z,12.27
2022-10-19T11:14:08.307Z,12.51
2022-10-19T11:16:41.018Z,12.59
2022-10-19T11:19:36.696Z,12.57
2022-10-19T11:22:40.796Z,12.65
2022-10-19T11:25:19.843Z,12.72
2022-10-19T11:28:14.289Z,12.75
2022-10-19T11:30:53.685Z,12.73
2022-10-19T11:33:44.487Z,12.88
2022-10-19T11:36:19.964Z,13.00
2022-10-19T11:39:11.692Z,12.86
2022-10-19T11:41:46.280Z,12.80
2022-10-19T11:44:20.744Z,12.85
2022-10-19T11:47:29.856Z,12.89
2022-10-19T11:50:10.485Z,12.97
2022-10-19T11:53:27.179Z,12.93
2022-10-19T11:56:02.771Z,12.86
2022-10-19T11:58:44.315Z,12.87
2022-10-19T12:01:17.367Z,13.14
2022-10-19T12:03:50.554Z,13.26
2022-10-19T12:06:20.695Z,13.19
2022-10-19T12:08:59.423Z,13.17
2022-10-19T12:11:34.908Z,13.14
2022-10-19T12:14:06.004Z,13.21
2022-10-19T12:16:49.846Z,13.21
2022-10-19T12:19:33.676Z,13.31
2022-10-19T12:22:03.401Z,13.28
2022-10-19T12:24:31.093Z,13.18
2022-10-19T12:26:58.708Z,13.13
2022-10-19T12:29:33.903Z,13.48
2022-10-19T12:32:02.081Z,13.72
2022-10-19T12:34:38.076Z,13.88
2022-10-19T12:37:19.302Z,13.87
2022-10-19T12:39:49.895Z,13.88
2022-10-19T12:42:31.120Z,14.01
2022-10-19T12:45:31.101Z,14.06
2022-10-19T12:48:12.755Z,14.22
2022-10-19T12:50:48.546Z,14.51
2022-10-19T12:53:38.421Z,15.02
2022-10-19T12:56:21.329Z,15.73
2022-10-19T12:58:59.769Z,16.51
2022-10-19T13:01:34.105Z,16.85
2022-10-19T13:04:13.817Z,16.94
2022-10-19T13:06:43.181Z,17.07
2022-10-19T13:09:28.326Z,16.37
2022-10-19T13:12:16.239Z,15.90
2022-10-19T13:14:55.400Z,15.54
2022-10-19T13:17:34.396Z,15.15
2022-10-19T13:20:13.431Z,14.93
2022-10-19T13:22:48.075Z,14.72
2022-10-19T13:25:26.867Z,14.58
2022-10-19T13:28:28.686Z,14.51
2022-10-19T13:31:00.481Z,14.53
2022-10-19T13:33:32.451Z,14.48
2022-10-19T13:35:58.797Z,14.34
2022-10-19T13:38:42.055Z,14.14
2022-10-19T13:41:14.564Z,14.06
2022-10-19T13:43:43.985Z,14.04
2022-10-19T13:46:15.363Z,13.93
2022-10-19T13:49:06.667Z,13.82
2022-10-19T13:51:41.184Z,13.73
2022-10-19T13:54:10.471Z,13.60
2022-10-19T13:57:03.650Z,13.54
2022-10-19T13:59:42.766Z,13.49
2022-10-19T14:02:50.885Z,13.46
2022-10-19T14:08:28.108Z,13.48
2022-10-19T14:11:17.106Z,13.43
2022-10-19T14:13:44.077Z,13.37
2022-10-19T14:16:22.130Z,13.38
2022-10-19T14:18:55.856Z,13.37
2022-10-19T14:21:36.956Z,13.34
2022-10-19T14:24:19.622Z,13.28
2022-10-19T14:26:46.432Z,13.29
2022-10-19T14:29:13.610Z,13.29
2022-10-19T14:31:40.287Z,13.26
2022-10-19T14:34:09.304Z,13.21
2022-10-19T14:36:44.195Z,13.19
2022-10-19T14:39:32.834Z,13.17
2022-10-19T14:42:07.042Z,13.15
2022-10-19T14:44:42.248Z,13.13
2022-10-19T14:47:21.811Z,13.10
2022-10-19T14:49:48.603Z,13.09
2022-10-19T14:52:33.244Z,13.06
2022-10-19T14:55:05.059Z,13.06
2022-10-19T14:57:36.756Z,13.08
2022-10-19T15:00:14.882Z,13.13
2022-10-19T15:03:01.793Z,13.15
2022-10-19T15:05:31.827Z,13.17
2022-10-19T15:08:10.223Z,13.18
2022-10-19T15:10:46.536Z,13.26
2022-10-19T15:13:28.872Z,13.39
2022-10-19T15:15:55.743Z,13.46
2022-10-19T15:18:47.544Z,13.48
2022-10-19T15:21:19.271Z,13.55
2022-10-19T15:23:48.803Z,13.56
2022-10-19T15:26:24.229Z,13.55
2022-10-19T15:28:51.881Z,13.63
2022-10-19T15:31:21.264Z,13.59
2022-10-19T15:33:56.760Z,13.50
2022-10-19T15:36:25.055Z,13.45
2022-10-19T15:39:06.123Z,13.41
2022-10-19T15:41:44.529Z,13.37
2022-10-19T15:44:49.127Z,13.29
2022-10-19T15:47:15.539Z,13.23
2022-10-19T15:49:41.870Z,13.25
2022-10-19T15:52:19.805Z,13.24
2022-10-19T15:54:50.731Z,13.17
2022-10-19T15:57:35.640Z,13.15
2022-10-19T16:00:12.172Z,13.15
2022-10-19T16:02:39.144Z,13.14
2022-10-19T16:07:36.591Z,13.07
2022-10-19T16:10:04.318Z,13.07
2022-10-19T16:12:30.812Z,13.06
2022-10-19T16:14:57.244Z,13.07
2022-10-19T16:17:23.772Z,13.04
2022-10-19T16:19:51.109Z,12.98
2022-10-19T16:22:17.590Z,12.97
2022-10-19T16:24:44.066Z,12.88
2022-10-19T16:27:14.990Z,12.81
2022-10-19T16:29:42.590Z,12.76
2022-10-19T16:32:09.408Z,12.71
2022-10-19T16:34:35.858Z,12.66
2022-10-19T16:37:05.732Z,12.66
2022-10-19T16:39:33.659Z,12.64
2022-10-19T16:42:00.373Z,12.61
2022-10-19T16:44:26.901Z,12.59
2022-10-19T16:46:55.496Z,12.51
2022-10-19T16:49:21.920Z,12.43
2022-10-19T16:51:49.978Z,12.36
2022-10-19T16:54:18.892Z,12.30
2022-10-19T16:56:46.936Z,12.25
2022-10-19T16:59:16.504Z,12.17
2022-10-19T17:01:44.513Z,12.13
2022-10-19T17:04:17.271Z,12.07
2022-10-19T17:06:43.739Z,12.02
2022-10-19T17:11:56.731Z,11.91
2022-10-19T17:14:23.165Z,11.87
2022-10-19T17:16:49.630Z,11.83
2022-10-19T17:19:16.173Z,11.76
2022-10-19T17:21:42.934Z,11.74
2022-10-19T17:24:20.102Z,11.70
2022-10-19T17:26:49.799Z,11.70
2022-10-19T17:29:16.291Z,11.68
2022-10-19T17:31:43.167Z,11.67
2022-10-19T17:34:09.923Z,11.63
2022-10-19T17:39:08.621Z,11.60
2022-10-19T17:41:35.590Z,11.60
2022-10-19T17:44:04.274Z,11.56
2022-10-19T17:46:32.962Z,11.51
2022-10-19T17:48:59.655Z,11.45
2022-10-19T17:51:29.269Z,11.42
2022-10-19T17:53:58.229Z,11.42
2022-10-19T17:56:25.459Z,11.33
2022-10-19T17:58:52.171Z,11.32
2022-10-19T18:01:20.933Z,11.31
2022-10-19T18:03:48.165Z,11.31
2022-10-19T18:06:18.009Z,11.33
2022-10-19T18:08:47.388Z,11.34
2022-10-19T18:11:17.299Z,11.34
2022-10-19T18:13:44.095Z,11.33
2022-10-19T18:16:14.311Z,11.32
2022-10-19T18:18:43.786Z,11.31
2022-10-19T18:21:12.738Z,11.30
2022-10-19T18:23:39.939Z,11.30
2022-10-19T18:26:19.760Z,11.25
2022-10-19T18:28:46.440Z,11.27
2022-10-19T18:31:14.510Z,11.25
2022-10-19T18:33:41.312Z,11.26
2022-10-19T18:36:10.608Z,11.25
2022-10-19T18:38:37.554Z,11.21
2022-10-19T18:41:06.362Z,11.20
2022-10-19T18:43:32.895Z,11.22
2022-10-19T18:46:00.825Z,11.26
2022-10-19T18:48:29.058Z,11.27
2022-10-19T18:50:56.910Z,11.32
2022-10-19T18:53:24.335Z,11.35
2022-10-19T18:56:00.474Z,11.37
2022-10-19T18:58:26.981Z,11.35
2022-10-19T19:01:06.783Z,11.34
2022-10-19T19:03:34.186Z,11.32
2022-10-19T19:06:06.151Z,11.29
2022-10-19T19:08:32.785Z,11.29
2022-10-19T19:11:12.992Z,11.32
2022-10-19T19:13:40.839Z,11.32
2022-10-19T19:16:08.606Z,11.30
2022-10-19T19:18:35.688Z,11.28
2022-10-19T19:21:12.960Z,11.26
2022-10-19T19:23:39.452Z,11.22
2022-10-19T19:26:07.432Z,11.20
2022-10-19T19:28:36.511Z,11.17
2022-10-19T19:31:07.296Z,11.13
2022-10-19T19:33:33.847Z,11.13
2022-10-19T19:36:00.305Z,11.16
2022-10-19T19:38:26.792Z,11.14
2022-10-19T19:40:53.193Z,11.10
2022-10-19T19:43:20.079Z,11.08
2022-10-19T19:48:27.849Z,11.06
2022-10-19T19:50:54.711Z,11.03
2022-10-19T19:53:21.275Z,11.03
2022-10-19T19:55:49.219Z,11.04
2022-10-19T19:58:16.237Z,11.04
2022-10-19T20:00:43.217Z,11.02
2022-10-19T20:03:11.377Z,11.01
2022-10-19T20:05:37.770Z,10.97
2022-10-19T20:08:04.250Z,10.95
2022-10-19T20:10:31.022Z,10.91
2022-10-19T20:12:57.531Z,10.88
2022-10-19T20:15:24.141Z,10.85
2022-10-19T20:17:50.578Z,10.84
2022-10-19T20:20:18.086Z,10.83
2022-10-19T20:22:48.657Z,10.83
2022-10-19T20:25:15.807Z,10.81
2022-10-19T20:27:42.306Z,10.80
2022-10-19T20:30:10.193Z,10.78
2022-10-19T20:32:37.606Z,10.78
2022-10-19T20:35:04.613Z,10.88
2022-10-19T20:37:31.357Z,10.92
2022-10-19T20:39:57.855Z,10.91
2022-10-19T20:42:24.304Z,10.90
2022-10-19T20:44:50.736Z,10.91
2022-10-19T20:47:17.265Z,10.91
2022-10-19T20:49:43.819Z,10.96
2022-10-19T20:52:10.218Z,10.95
2022-10-19T20:54:37.105Z,10.93
2022-10-19T20:57:03.631Z,10.90
2022-10-19T20:59:31.460Z,10.89
2022-10-19T21:01:58.063Z,10.87
2022-10-19T21:04:25.622Z,10.83
2022-10-19T21:06:52.706Z,10.80
2022-10-19T21:09:21.623Z,10.76
2022-10-19T21:11:50.200Z,10.74
2022-10-19T21:14:22.448Z,10.72
2022-10-19T21:16:52.222Z,10.69
2022-10-19T21:19:25.182Z,10.67
2022-10-19T21:21:55.434Z,10.64
2022-10-19T21:24:28.097Z,10.62
2022-10-19T21:26:54.650Z,10.59
2022-10-19T21:29:21.261Z,10.58
2022-10-19T21:31:49.838Z,10.55
2022-10-19T21:34:19.412Z,10.54
2022-10-19T21:36:45.863Z,10.53
2022-10-19T21:39:12.636Z,10.53
2022-10-19T21:41:39.149Z,10.52
2022-10-19T21:44:05.619Z,10.53
2022-10-19T21:46:32.109Z,10.51
2022-10-19T21:48:58.566Z,10.53
2022-10-19T21:51:43.339Z,10.55
2022-10-19T21:54:21.943Z,10.54
2022-10-19T21:56:48.817Z,10.54
2022-10-19T21:59:15.453Z,10.54
2022-10-19T22:01:42.135Z,10.54
2022-10-19T22:04:12.114Z,10.54
2022-10-19T22:06:38.787Z,10.54
2022-10-19T22:09:07.235Z,10.54
2022-10-19T22:11:34.247Z,10.53
2022-10-19T22:14:02.788Z,10.54
2022-10-19T22:16:30.389Z,10.53
2022-10-19T22:18:57.916Z,10.53
2022-10-19T22:21:30.582Z,10.51
2022-10-19T22:24:00.486Z,10.48
2022-10-19T22:26:29.813Z,10.46
2022-10-19T22:28:57.781Z,10.46
2022-10-19T22:31:25.692Z,10.45
2022-10-19T22:33:52.159Z,10.44
2022-10-19T22:36:18.653Z,10.43
2022-10-19T22:38:45.284Z,10.40
2022-10-19T22:41:11.729Z,10.38
2022-10-19T22:43:38.131Z,10.35
2022-10-19T22:46:04.798Z,10.36
2022-10-19T22:48:31.319Z,10.35
2022-10-19T22:50:57.733Z,10.35
2022-10-19T22:53:24.490Z,10.34
2022-10-19T22:55:51.565Z,10.35
2022-10-19T22:58:18.607Z,10.37
2022-10-19T23:00:44.995Z,10.41
2022-10-19T23:03:11.436Z,10.44
2022-10-19T23:05:37.823Z,10.45
2022-10-19T23:08:04.642Z,10.48
2022-10-19T23:10:32.616Z,10.52
2022-10-19T23:12:59.042Z,10.55
2022-10-19T23:15:25.535Z,10.57
2022-10-19T23:17:51.970Z,10.61
2022-10-19T23:20:18.469Z,10.65
2022-10-19T23:22:44.962Z,10.64
2022-10-19T23:25:11.337Z,10.66
2022-10-19T23:27:38.026Z,10.74
2022-10-19T23:30:05.033Z,10.79
2022-10-19T23:32:31.564Z,10.82
2022-10-19T23:34:57.996Z,10.79
2022-10-19T23:37:24.446Z,10.84
2022-10-19T23:39:50.839Z,10.86
2022-10-19T23:42:17.314Z,10.87
2022-10-19T23:44:43.854Z,10.90
2022-10-19T23:47:10.308Z,10.90
2022-10-19T23:49:36.731Z,10.92
2022-10-19T23:52:03.331Z,10.94
2022-10-19T23:54:29.774Z,10.96
2022-10-19T23:56:56.170Z,10.98
2022-10-19T23:59:22.724Z,10.99
